This is the latest recevied weather packets stored in our database for station/object WX5RP. If no packets are shown the sender has not sent any weather packets the latest 10 day(s).
| Time | Temp. | Humidity | Pressure | Rain* | Wind** | Luminosity | Snow |
|---|---|---|---|---|---|---|---|
| 1787735416 | 10.56° C | 73% | 1021.4 hPa | 0 mm | - | 0 W/m² | - |
| 1787734816 | 10.56° C | 73% | 1021.4 hPa | 0 mm | - | 0 W/m² | - |
| 1787734216 | 11.11° C | 73% | 1021.1 hPa | 0 mm | - | 0 W/m² | - |
| 1787733616 | 11.11° C | 73% | 1021.1 hPa | 0 mm | - | 0 W/m² | - |
| 1787733015 | 11.11° C | 73% | 1021.1 hPa | 0 mm | - | 0 W/m² | - |
| 1787732416 | 11.11° C | 74% | 1020.7 hPa | 0 mm | - | 0 W/m² | - |
| 1787731816 | 11.11° C | 73% | 1021.3 hPa | 0 mm | - | 0 W/m² | - |
| 1787731215 | 11.11° C | 72% | 1021.3 hPa | 0 mm | - | 0 W/m² | - |
| 1787730615 | 11.67° C | 71% | 1021.2 hPa | 0 mm | - | 0 W/m² | - |
| 1787730015 | 12.22° C | 70% | 1021.2 hPa | 0 mm | - | 0 W/m² | - |
| 1787729415 | 12.22° C | 69% | 1020.9 hPa | 0 mm | - | 0 W/m² | - |
| 1787728815 | 12.78° C | 68% | 1020.9 hPa | 0 mm | - | 0 W/m² | - |
| 1787728216 | 13.33° C | 64% | 1021.1 hPa | 0 mm | - | 0 W/m² | - |
| 1787727616 | 13.89° C | 61% | 1021.1 hPa | 0 mm | - | 0 W/m² | - |
| 1787727017 | 14.44° C | 60% | 1020.4 hPa | 0 mm | - | 0 W/m² | - |
| 1787726417 | 14.44° C | 57% | 1020.7 hPa | 0 mm | - | 0 W/m² | - |
| 1787725817 | 13.33° C | 60% | 1020.4 hPa | 0 mm | - | 0 W/m² | - |
| 1787725217 | 15° C | 56% | 1020.1 hPa | 0 mm | - | 0 W/m² | - |
| 1787724617 | 15.56° C | 52% | 1021.1 hPa | 0 mm | - | 0 W/m² | - |
| 1787724018 | 14.44° C | 57% | 1020.8 hPa | 0 mm | - | 0 W/m² | - |
| 1787723418 | 15.56° C | 51% | 1020.8 hPa | 0 mm | - | 0 W/m² | - |
| 1787722817 | 16.67° C | 45% | 1020.3 hPa | 0 mm | - | 0 W/m² | - |
| 1787722217 | 18.33° C | 39% | 1020.8 hPa | 0 mm | - | 0 W/m² | - |
| 1787721617 | 16.11° C | 41% | 1020.4 hPa | 0 mm | - | 0 W/m² | - |
| 1787721017 | 16.11° C | 41% | 1020.7 hPa | 0 mm | - | 0 W/m² | - |
* Rain latest hour (hover to see other rain measurements)
** Current wind speed in m/s (hover to see current wind gust speed)